KCUL

Carmi Municipal Airport

Carmi, Illinois, USA
METAR KCUL 201552Z AUTO 20011KT 10SM BKN020 OVC026 26/23 A2988 RMK AO2 LTG DSNT E
Observed Flight Rules
Aug-20 @ 15:52 UTC (31 minutes ago) Marginal Visual Flight Rules
Wind Visibility Clouds
200° at 11 knots 10 miles
  • Broken at 2,000' AGL
  • Overcast at 2,600' AGL
Temperatures Readings
Current 26°C / 79°F
Dewpoint 23°C / 73°F
Humidity 84%
Altimeter 29.88" Hg
Pressure 1012 hPa
Elevation 118
METAR KCUL 201552Z AUTO 20011KT 10SM BKN020 OVC026 26/23 A2988 RMK AO2 LTG DSNT E
Observed Flight Rules
Aug-20 @ 15:52 UTC
(31 minutes ago)
MVFR
Wind Visibility
200° at 11 knots 10 miles
Clouds
  • Broken at 2,000' AGL
  • Overcast at 2,600' AGL
Temperature Dewpoint
26°C / 79°F 23°C / 73°F
Humidity Altimeter Pressure
84% 29.88" Hg 1012 hPa